createdAt,value
2019-01-23T00:00:30.845Z,53.80
2019-01-23T00:03:01.308Z,63.70
2019-01-23T00:05:31.714Z,54.07
2019-01-23T00:08:02.280Z,58.27
2019-01-23T00:10:32.757Z,63.43
2019-01-23T00:13:03.564Z,54.17
2019-01-23T00:15:34.231Z,61.73
2019-01-23T00:18:04.837Z,61.13
2019-01-23T00:20:35.452Z,63.60
2019-01-23T00:23:05.933Z,63.10
2019-01-23T00:25:36.455Z,62.43
2019-01-23T00:28:07.042Z,53.50
2019-01-23T00:30:37.648Z,54.93
2019-01-23T00:33:08.165Z,58.57
2019-01-23T00:35:38.783Z,57.17
2019-01-23T00:38:09.277Z,61.13
2019-01-23T00:40:39.864Z,58.53
2019-01-23T00:43:10.390Z,64.10
2019-01-23T00:45:41.023Z,57.90
2019-01-23T00:48:11.507Z,54.00
2019-01-23T00:50:42.128Z,56.80
2019-01-23T00:53:12.619Z,51.57
2019-01-23T00:55:43.100Z,51.83
2019-01-23T00:58:13.624Z,59.33
2019-01-23T01:00:44.055Z,51.27
2019-01-23T01:03:14.582Z,54.83
2019-01-23T01:05:45.208Z,52.97
2019-01-23T01:08:15.614Z,48.47
2019-01-23T01:10:46.211Z,52.80
2019-01-23T01:13:16.691Z,51.47
2019-01-23T01:15:47.164Z,61.63
2019-01-23T01:18:17.561Z,60.63
2019-01-23T01:20:48.157Z,62.13
2019-01-23T01:23:18.623Z,64.50
2019-01-23T01:25:49.189Z,55.10
2019-01-23T01:28:19.767Z,56.47
2019-01-23T01:30:50.242Z,57.73
2019-01-23T01:33:20.813Z,61.20
2019-01-23T01:35:51.325Z,61.03
2019-01-23T01:38:21.881Z,55.27
2019-01-23T01:40:52.297Z,64.73
2019-01-23T01:43:22.904Z,57.00
2019-01-23T01:45:53.310Z,62.47
2019-01-23T01:48:23.887Z,62.20
2019-01-23T01:50:54.443Z,66.03
2019-01-23T01:53:25.390Z,63.50
2019-01-23T01:55:55.966Z,64.30
2019-01-23T01:58:26.523Z,65.27
2019-01-23T02:00:57.033Z,72.93
2019-01-23T02:03:27.736Z,66.30
2019-01-23T02:05:58.304Z,67.10
2019-01-23T02:08:28.948Z,73.00
2019-01-23T02:10:59.534Z,70.93
2019-01-23T02:13:30.123Z,70.83
2019-01-23T02:16:00.728Z,68.60
2019-01-23T02:18:31.354Z,67.83
2019-01-23T02:21:01.972Z,71.83
2019-01-23T02:23:33.006Z,66.47
2019-01-23T02:26:03.532Z,76.83
2019-01-23T02:28:34.169Z,73.17
2019-01-23T02:31:04.832Z,69.93
2019-01-23T02:33:35.333Z,78.23
2019-01-23T02:36:05.918Z,73.57
2019-01-23T02:38:36.573Z,72.57
2019-01-23T02:41:07.053Z,82.20
2019-01-23T02:43:37.708Z,80.20
2019-01-23T02:46:08.314Z,78.67
2019-01-23T02:48:38.960Z,77.40
2019-01-23T02:51:09.639Z,84.73
2019-01-23T02:53:40.083Z,84.43
2019-01-23T02:56:10.650Z,82.07
2019-01-23T02:58:41.296Z,78.93
2019-01-23T03:01:12.133Z,80.47
2019-01-23T03:03:42.789Z,80.10
2019-01-23T03:06:13.394Z,77.77
2019-01-23T03:08:44.051Z,78.13
2019-01-23T03:11:14.616Z,82.37
2019-01-23T03:13:45.283Z,70.90
2019-01-23T03:16:15.891Z,73.20
2019-01-23T03:18:46.546Z,71.57
2019-01-23T03:21:17.182Z,94.53
2019-01-23T03:23:47.828Z,84.70
2019-01-23T03:26:18.466Z,77.00
2019-01-23T03:28:49.111Z,77.37
2019-01-23T03:31:19.688Z,82.67
2019-01-23T03:33:50.305Z,81.63
2019-01-23T03:36:20.950Z,79.87
2019-01-23T03:38:51.646Z,85.17
2019-01-23T03:41:22.172Z,84.30
2019-01-23T03:43:52.762Z,84.20
2019-01-23T03:46:23.385Z,82.17
2019-01-23T03:48:54.023Z,84.80
2019-01-23T03:51:24.869Z,77.43
2019-01-23T03:53:55.555Z,82.57
2019-01-23T03:56:26.175Z,72.93
2019-01-23T03:58:56.837Z,79.50
2019-01-23T04:01:27.426Z,81.17
2019-01-23T04:03:58.090Z,74.80
2019-01-23T04:06:28.728Z,75.83
2019-01-23T04:08:59.363Z,79.17
2019-01-23T04:11:29.968Z,81.00
2019-01-23T04:14:00.635Z,79.03
2019-01-23T04:16:50.427Z,74.07
2019-01-23T04:19:21.122Z,80.10
2019-01-23T04:21:51.758Z,71.53
2019-01-23T04:24:22.395Z,86.43
2019-01-23T04:26:52.991Z,82.77
2019-01-23T04:29:23.647Z,80.30
2019-01-23T04:31:54.255Z,73.97
2019-01-23T04:34:24.870Z,76.97
2019-01-23T04:36:55.486Z,74.10
2019-01-23T04:39:26.151Z,68.37
2019-01-23T04:41:56.804Z,77.13
2019-01-23T04:44:27.426Z,77.57
2019-01-23T04:46:58.051Z,72.43
2019-01-23T04:49:28.638Z,66.50
2019-01-23T04:52:13.778Z,80.90
2019-01-23T04:54:44.397Z,77.00
2019-01-23T04:57:14.991Z,77.50
2019-01-23T04:59:46.905Z,75.80
2019-01-23T05:02:17.794Z,73.00
2019-01-23T05:04:48.460Z,84.07
2019-01-23T05:07:19.098Z,71.43
2019-01-23T05:09:49.782Z,76.97
2019-01-23T05:12:20.621Z,91.07
2019-01-23T05:14:51.265Z,80.43
2019-01-23T05:17:21.881Z,78.43
2019-01-23T05:19:52.497Z,75.20
2019-01-23T05:22:23.123Z,75.17
2019-01-23T05:24:53.740Z,78.67
2019-01-23T05:27:24.347Z,84.90
2019-01-23T05:29:55.270Z,70.50
2019-01-23T05:32:25.909Z,67.80
2019-01-23T05:34:56.458Z,70.30
2019-01-23T05:37:27.072Z,68.60
2019-01-23T05:39:57.689Z,70.53
2019-01-23T05:42:28.317Z,69.60
2019-01-23T05:44:58.950Z,69.03
2019-01-23T05:47:29.921Z,72.27
2019-01-23T05:50:00.552Z,73.77
2019-01-23T05:52:31.209Z,73.90
2019-01-23T05:55:01.885Z,66.67
2019-01-23T05:57:32.513Z,67.43
2019-01-23T06:00:03.139Z,76.77
2019-01-23T06:02:33.814Z,66.43
2019-01-23T06:05:05.071Z,73.33
2019-01-23T06:07:35.647Z,63.27
2019-01-23T06:10:06.685Z,67.57
2019-01-23T06:12:37.382Z,71.83
2019-01-23T06:15:09.016Z,69.33
2019-01-23T06:17:39.612Z,66.83
2019-01-23T06:20:12.460Z,68.43
2019-01-23T06:22:43.138Z,68.13
2019-01-23T06:25:13.914Z,63.53
2019-01-23T06:27:45.508Z,65.23
2019-01-23T06:30:18.436Z,68.13
2019-01-23T06:32:49.093Z,69.90
2019-01-23T06:35:19.579Z,66.97
2019-01-23T06:37:50.126Z,66.87
2019-01-23T06:40:20.750Z,67.27
2019-01-23T06:42:51.418Z,60.67
2019-01-23T06:45:22.207Z,65.60
2019-01-23T06:47:52.839Z,63.20
2019-01-23T06:50:23.746Z,57.97
2019-01-23T06:52:54.433Z,63.13
2019-01-23T06:55:25.118Z,64.70
2019-01-23T06:57:55.716Z,64.73
2019-01-23T07:00:26.901Z,58.57
2019-01-23T07:02:57.538Z,66.30
2019-01-23T07:05:28.144Z,62.30
2019-01-23T07:07:58.730Z,59.20
2019-01-23T07:10:29.404Z,64.33
2019-01-23T07:13:00.044Z,68.80
2019-01-23T07:15:30.709Z,58.37
2019-01-23T07:18:01.277Z,58.77
2019-01-23T07:20:31.871Z,56.50
2019-01-23T07:23:02.529Z,56.83
2019-01-23T07:25:33.206Z,65.00
2019-01-23T07:28:03.712Z,61.57
2019-01-23T07:30:39.958Z,55.37
2019-01-23T07:33:10.575Z,57.80
2019-01-23T07:35:41.221Z,51.03
2019-01-23T07:38:11.791Z,59.57
2019-01-23T07:40:42.294Z,54.77
2019-01-23T07:43:12.980Z,63.53
2019-01-23T07:45:43.595Z,52.93
2019-01-23T07:48:14.232Z,55.73
2019-01-23T07:50:44.908Z,55.93
2019-01-23T07:53:15.584Z,62.07
2019-01-23T07:55:46.191Z,59.57
2019-01-23T07:58:16.857Z,58.63
2019-01-23T08:00:47.363Z,55.90
2019-01-23T08:03:17.999Z,54.93
2019-01-23T08:05:48.719Z,53.30
2019-01-23T08:08:19.423Z,53.00
2019-01-23T08:10:49.968Z,59.30
2019-01-23T08:13:20.608Z,56.80
2019-01-23T08:15:51.161Z,56.37
2019-01-23T08:18:21.747Z,57.20
2019-01-23T08:20:52.379Z,56.67
2019-01-23T08:23:23.040Z,58.67
2019-01-23T08:25:53.686Z,61.00
2019-01-23T08:28:24.272Z,51.77
2019-01-23T08:30:54.888Z,58.87
2019-01-23T08:33:25.455Z,58.43
2019-01-23T08:36:15.265Z,61.73
2019-01-23T08:38:45.882Z,56.60
2019-01-23T08:41:16.495Z,56.57
2019-01-23T08:43:47.155Z,58.73
2019-01-23T08:46:17.752Z,63.07
2019-01-23T08:48:48.447Z,63.07
2019-01-23T08:51:19.043Z,61.27
2019-01-23T08:53:49.751Z,59.20
2019-01-23T08:56:20.386Z,58.17
2019-01-23T08:58:51.033Z,57.13
2019-01-23T09:01:21.698Z,62.73
2019-01-23T09:03:52.507Z,59.10
2019-01-23T09:06:23.132Z,63.77
2019-01-23T09:08:53.798Z,63.33
2019-01-23T09:11:24.533Z,59.60
2019-01-23T09:13:55.190Z,67.60
2019-01-23T09:16:25.846Z,68.23
2019-01-23T09:18:56.474Z,56.23
2019-01-23T09:21:27.098Z,62.30
2019-01-23T09:23:58.146Z,67.17
2019-01-23T09:26:28.751Z,67.63
2019-01-23T09:28:59.347Z,62.20
2019-01-23T09:32:29.408Z,65.87
2019-01-23T09:35:40.044Z,68.27
2019-01-23T09:38:52.230Z,65.63
2019-01-23T09:42:00.406Z,64.80
2019-01-23T09:45:02.440Z,72.90
2019-01-23T09:47:55.031Z,69.43
2019-01-23T09:51:19.431Z,70.13
2019-01-23T09:53:56.648Z,65.90
2019-01-23T09:56:27.159Z,63.50
2019-01-23T09:58:57.721Z,62.70
2019-01-23T10:01:28.369Z,66.30
2019-01-23T10:03:58.844Z,59.10
2019-01-23T10:06:29.420Z,61.77
2019-01-23T10:08:59.997Z,65.60
2019-01-23T10:11:30.483Z,57.53
2019-01-23T10:14:00.909Z,65.93
2019-01-23T10:16:31.376Z,58.97
2019-01-23T10:19:01.923Z,57.27
2019-01-23T10:21:32.427Z,61.33
2019-01-23T10:24:02.845Z,57.23
2019-01-23T10:26:33.433Z,58.37
2019-01-23T10:29:03.898Z,63.70
2019-01-23T10:31:34.486Z,60.37
2019-01-23T10:34:05.061Z,66.70
2019-01-23T10:36:35.617Z,58.60
2019-01-23T10:39:08.938Z,60.77
2019-01-23T10:41:39.430Z,55.57
2019-01-23T10:44:10.506Z,51.27
2019-01-23T10:46:41.136Z,56.53
2019-01-23T10:49:11.699Z,60.33
2019-01-23T10:51:42.315Z,50.70
2019-01-23T10:54:12.812Z,56.63
2019-01-23T10:56:43.338Z,53.20
2019-01-23T10:59:13.954Z,58.47
2019-01-23T11:01:44.411Z,50.73
2019-01-23T11:04:14.808Z,52.13
2019-01-23T11:06:45.273Z,54.00
2019-01-23T11:09:15.854Z,55.50
2019-01-23T11:11:46.417Z,57.53
2019-01-23T11:14:16.903Z,51.53
2019-01-23T11:16:48.989Z,53.67
2019-01-23T11:19:19.665Z,55.13
2019-01-23T11:21:50.256Z,52.83
2019-01-23T11:24:20.858Z,57.93
2019-01-23T11:26:51.545Z,54.70
2019-01-23T11:29:22.121Z,55.73
2019-01-23T11:31:52.787Z,55.23
2019-01-23T11:34:23.394Z,57.90
2019-01-23T11:36:54.002Z,58.03
2019-01-23T11:39:24.710Z,58.00
2019-01-23T11:41:55.343Z,58.40
2019-01-23T11:44:25.954Z,58.87
2019-01-23T11:46:56.565Z,51.30
2019-01-23T11:49:27.263Z,59.73
2019-01-23T11:51:57.971Z,58.83
2019-01-23T11:54:28.623Z,52.70
2019-01-23T11:56:59.512Z,54.20
2019-01-23T11:59:30.240Z,66.00
2019-01-23T12:02:00.883Z,60.77
2019-01-23T12:04:31.559Z,54.67
2019-01-23T12:07:02.187Z,58.27
2019-01-23T12:09:52.016Z,52.17
2019-01-23T12:12:22.473Z,58.70
2019-01-23T12:14:53.109Z,55.10
2019-01-23T12:17:23.735Z,60.83
2019-01-23T12:19:54.392Z,58.63
2019-01-23T12:22:25.028Z,62.20
2019-01-23T12:24:55.684Z,54.60
2019-01-23T12:27:26.350Z,58.37
2019-01-23T12:29:57.206Z,63.17
2019-01-23T12:32:28.693Z,62.07
2019-01-23T12:35:00.425Z,61.70
2019-01-23T12:37:31.146Z,56.90
2019-01-23T12:40:01.725Z,58.53
2019-01-23T12:42:32.308Z,53.93
2019-01-23T12:45:02.927Z,54.27
2019-01-23T12:47:33.411Z,58.43
2019-01-23T12:50:04.477Z,59.17
2019-01-23T12:52:35.113Z,60.97
2019-01-23T12:55:06.661Z,68.00
2019-01-23T12:57:37.267Z,54.77
2019-01-23T13:00:10.998Z,63.67
2019-01-23T13:02:41.506Z,55.23
2019-01-23T13:05:12.470Z,56.67
2019-01-23T13:07:43.043Z,53.70
2019-01-23T13:10:15.829Z,55.37
2019-01-23T13:12:46.376Z,57.10
2019-01-23T13:15:19.203Z,58.50
2019-01-23T13:17:49.798Z,58.87
2019-01-23T13:20:21.045Z,60.30
2019-01-23T13:22:51.643Z,54.67
2019-01-23T13:25:24.178Z,54.87
2019-01-23T13:27:55.095Z,56.17
2019-01-23T13:30:26.120Z,51.80
2019-01-23T13:32:56.738Z,51.20
2019-01-23T13:35:30.634Z,52.23
2019-01-23T13:38:01.700Z,49.83
2019-01-23T13:40:34.498Z,53.03
2019-01-23T13:43:06.484Z,52.07
2019-01-23T13:45:36.971Z,57.90
2019-01-23T13:48:09.159Z,57.77
2019-01-23T13:50:39.776Z,47.70
2019-01-23T13:53:10.240Z,55.70
2019-01-23T13:55:40.847Z,56.00
2019-01-23T13:58:11.474Z,57.17
2019-01-23T14:00:42.849Z,58.23
2019-01-23T14:03:13.456Z,60.07
2019-01-23T14:05:44.112Z,68.40
2019-01-23T14:08:16.078Z,62.27
2019-01-23T14:10:46.785Z,60.03
2019-01-23T14:13:17.321Z,62.77
2019-01-23T14:15:47.888Z,62.80
2019-01-23T14:18:18.354Z,64.13
2019-01-23T14:20:48.990Z,59.17
2019-01-23T14:23:20.789Z,64.73
2019-01-23T14:25:51.573Z,58.13
2019-01-23T14:28:22.179Z,66.10
2019-01-23T14:30:52.726Z,60.40
2019-01-23T14:33:23.253Z,60.97
2019-01-23T14:35:53.908Z,71.30
2019-01-23T14:38:24.548Z,65.77
2019-01-23T14:40:55.021Z,66.60
2019-01-23T14:43:25.578Z,64.07
2019-01-23T14:45:56.093Z,70.07
2019-01-23T14:48:26.910Z,72.67
2019-01-23T14:50:57.527Z,68.40
2019-01-23T14:53:28.102Z,64.97
2019-01-23T14:55:58.679Z,63.60
2019-01-23T14:58:29.238Z,66.93
2019-01-23T15:00:59.740Z,60.23
2019-01-23T15:03:30.331Z,68.27
2019-01-23T15:06:00.934Z,72.80
2019-01-23T15:08:31.501Z,68.47
2019-01-23T15:11:01.286Z,66.73
2019-01-23T15:13:31.923Z,61.30
2019-01-23T15:16:02.559Z,61.33
2019-01-23T15:18:33.145Z,65.83
2019-01-23T15:21:03.753Z,69.27
2019-01-23T15:23:35.638Z,68.43
2019-01-23T15:26:06.255Z,70.00
2019-01-23T15:28:36.753Z,69.00
2019-01-23T15:31:07.190Z,77.13
2019-01-23T15:33:37.823Z,72.57
2019-01-23T15:36:08.410Z,67.43
2019-01-23T15:38:39.021Z,78.07
2019-01-23T15:41:09.603Z,70.60
2019-01-23T15:43:40.183Z,70.07
2019-01-23T15:46:10.815Z,65.43
2019-01-23T15:48:41.431Z,68.77
2019-01-23T15:51:12.061Z,63.13
2019-01-23T15:53:42.755Z,62.37
2019-01-23T15:56:13.341Z,65.87
2019-01-23T15:58:44.998Z,62.83
2019-01-23T16:01:15.626Z,64.67
2019-01-23T16:03:46.860Z,62.30
2019-01-23T16:06:17.476Z,66.20
2019-01-23T16:08:48.104Z,62.97
2019-01-23T16:11:18.712Z,70.33
2019-01-23T16:13:49.355Z,64.30
2019-01-23T16:16:19.972Z,76.03
2019-01-23T16:18:50.529Z,69.97
2019-01-23T16:21:21.142Z,65.40
2019-01-23T16:23:51.771Z,68.23
2019-01-23T16:26:22.402Z,70.57
2019-01-23T16:28:53.093Z,75.47
2019-01-23T16:31:23.712Z,66.50
2019-01-23T16:33:54.285Z,70.17
2019-01-23T16:36:24.902Z,69.27
2019-01-23T16:38:55.529Z,67.63
2019-01-23T16:41:26.175Z,64.87
2019-01-23T16:43:56.752Z,63.17
2019-01-23T16:46:27.388Z,69.90
2019-01-23T16:48:58.054Z,71.00
2019-01-23T16:51:28.594Z,66.80
2019-01-23T16:53:59.156Z,70.63
2019-01-23T16:56:29.673Z,68.23
2019-01-23T16:59:00.210Z,78.40
2019-01-23T17:01:30.716Z,71.53
2019-01-23T17:04:01.343Z,69.23
2019-01-23T17:06:31.799Z,65.97
2019-01-23T17:09:02.355Z,66.57
2019-01-23T17:11:32.963Z,66.60
2019-01-23T17:14:03.557Z,66.53
2019-01-23T17:16:34.206Z,59.43
2019-01-23T17:19:04.631Z,62.90
2019-01-23T17:21:35.126Z,71.87
2019-01-23T17:24:06.043Z,66.33
2019-01-23T17:26:36.559Z,68.27
2019-01-23T17:29:07.177Z,57.83
2019-01-23T17:31:37.792Z,65.47
2019-01-23T17:34:08.359Z,68.50
2019-01-23T17:36:39.046Z,63.93
2019-01-23T17:39:10.329Z,61.70
2019-01-23T17:41:40.938Z,64.57
2019-01-23T17:44:11.535Z,67.17
2019-01-23T17:46:42.401Z,60.47
2019-01-23T17:49:13.307Z,65.40
2019-01-23T17:51:44.223Z,68.50
2019-01-23T17:54:14.879Z,64.80
2019-01-23T17:56:45.537Z,69.67
2019-01-23T17:59:16.153Z,63.67
2019-01-23T18:01:46.829Z,65.37
2019-01-23T18:04:18.512Z,63.93
2019-01-23T18:06:49.073Z,62.23
2019-01-23T18:09:19.638Z,60.90
2019-01-23T18:11:50.255Z,57.00
2019-01-23T18:14:20.840Z,60.73
2019-01-23T18:16:51.416Z,59.47
2019-01-23T18:19:21.995Z,62.63
2019-01-23T18:21:52.633Z,66.43
2019-01-23T18:24:23.256Z,63.70
2019-01-23T18:26:53.923Z,60.47
2019-01-23T18:29:24.492Z,72.57
2019-01-23T18:32:02.016Z,61.67
2019-01-23T18:35:23.287Z,58.03
2019-01-23T18:38:13.334Z,56.57
2019-01-23T18:41:03.377Z,64.63
2019-01-23T18:44:15.444Z,64.70
2019-01-23T18:47:30.272Z,68.90
2019-01-23T18:50:41.149Z,59.00
2019-01-23T18:53:11.713Z,69.83
2019-01-23T18:55:42.350Z,66.03
2019-01-23T18:58:13.017Z,86.33
2019-01-23T19:00:43.673Z,91.97
2019-01-23T19:03:14.259Z,91.47
2019-01-23T19:05:44.767Z,67.33
2019-01-23T19:08:15.682Z,75.47
2019-01-23T19:10:46.287Z,63.67
2019-01-23T19:13:16.994Z,72.00
2019-01-23T19:15:47.622Z,70.60
2019-01-23T19:18:18.346Z,69.23
2019-01-23T19:20:48.994Z,73.77
2019-01-23T19:23:19.589Z,70.67
2019-01-23T19:25:51.206Z,67.03
2019-01-23T19:28:22.032Z,71.13
2019-01-23T19:30:52.724Z,68.90
2019-01-23T19:33:23.346Z,68.83
2019-01-23T19:35:54.023Z,71.50
2019-01-23T19:38:24.597Z,70.63
2019-01-23T19:40:55.235Z,65.60
2019-01-23T19:43:25.781Z,65.10
2019-01-23T19:45:56.457Z,68.67
2019-01-23T19:48:27.097Z,65.57
2019-01-23T19:50:57.719Z,65.63
2019-01-23T19:53:28.366Z,64.33
2019-01-23T19:55:58.993Z,62.13
2019-01-23T19:58:48.783Z,65.67
2019-01-23T20:01:19.472Z,69.23
2019-01-23T20:03:50.115Z,68.17
2019-01-23T20:06:39.937Z,72.63
2019-01-23T20:09:11.164Z,69.37
2019-01-23T20:11:41.887Z,66.37
2019-01-23T20:14:12.498Z,63.63
2019-01-23T20:16:43.092Z,71.60
2019-01-23T20:19:14.959Z,67.17
2019-01-23T20:21:45.607Z,70.90
2019-01-23T20:24:16.261Z,67.03
2019-01-23T20:26:46.897Z,77.07
2019-01-23T20:29:17.544Z,66.73
2019-01-23T20:31:48.230Z,72.27
2019-01-23T20:34:18.854Z,68.57
2019-01-23T20:36:49.527Z,71.23
2019-01-23T20:39:20.169Z,71.67
2019-01-23T20:41:50.776Z,68.83
2019-01-23T20:44:21.434Z,62.80
2019-01-23T20:46:52.059Z,68.93
2019-01-23T20:49:22.635Z,70.33
2019-01-23T20:51:53.320Z,70.00
2019-01-23T20:54:23.920Z,68.40
2019-01-23T20:56:54.643Z,71.10
2019-01-23T20:59:25.229Z,66.03
2019-01-23T21:01:55.870Z,73.13
2019-01-23T21:04:26.502Z,76.60
2019-01-23T21:06:57.179Z,67.70
2019-01-23T21:09:27.785Z,70.70
2019-01-23T21:11:58.346Z,79.80
2019-01-23T21:14:28.967Z,85.10
2019-01-23T21:16:59.576Z,92.27
2019-01-23T21:19:30.140Z,77.77
2019-01-23T21:22:00.806Z,92.33
2019-01-23T21:24:31.425Z,93.37
2019-01-23T21:27:02.095Z,84.67
2019-01-23T21:29:32.737Z,77.13
2019-01-23T21:32:03.483Z,86.10
2019-01-23T21:34:34.178Z,88.20
2019-01-23T21:37:04.794Z,83.80
2019-01-23T21:39:36.356Z,78.00
2019-01-23T21:42:06.918Z,78.07
2019-01-23T21:44:37.573Z,76.67
2019-01-23T21:47:08.160Z,65.57
2019-01-23T21:49:38.770Z,64.20
2019-01-23T21:52:09.344Z,69.57
2019-01-23T21:54:40.000Z,72.10
2019-01-23T21:57:10.615Z,64.67
2019-01-23T21:59:41.302Z,64.43
2019-01-23T22:02:11.928Z,70.63
2019-01-23T22:04:42.564Z,66.53
2019-01-23T22:07:13.053Z,72.27
2019-01-23T22:09:43.730Z,63.63
2019-01-23T22:12:14.203Z,57.73
2019-01-23T22:14:44.790Z,73.77
2019-01-23T22:17:15.266Z,76.23
2019-01-23T22:19:45.874Z,83.63
2019-01-23T22:22:16.489Z,82.90
2019-01-23T22:24:46.987Z,69.67
2019-01-23T22:27:17.572Z,63.20
2019-01-23T22:29:48.208Z,66.90
2019-01-23T22:32:18.604Z,63.40
2019-01-23T22:34:49.081Z,68.60
2019-01-23T22:37:19.497Z,64.60
2019-01-23T22:39:50.124Z,62.53
2019-01-23T22:42:20.590Z,58.00
2019-01-23T22:44:51.188Z,61.07
2019-01-23T22:47:21.662Z,65.67
2019-01-23T22:49:52.264Z,63.00
2019-01-23T22:52:22.846Z,61.17
2019-01-23T22:54:53.472Z,62.27
2019-01-23T22:57:24.098Z,71.93
2019-01-23T22:59:54.607Z,60.07
2019-01-23T23:02:25.122Z,64.37
2019-01-23T23:04:55.688Z,66.10
2019-01-23T23:07:26.323Z,63.47
2019-01-23T23:09:56.780Z,57.93
2019-01-23T23:12:27.356Z,59.43
2019-01-23T23:14:57.962Z,55.83
2019-01-23T23:17:28.470Z,64.10
2019-01-23T23:19:58.924Z,62.00
2019-01-23T23:22:29.442Z,63.13
2019-01-23T23:24:59.932Z,57.17
2019-01-23T23:27:30.404Z,59.23
2019-01-23T23:30:00.990Z,57.67
2019-01-23T23:32:31.563Z,56.17
2019-01-23T23:35:03.323Z,55.70
2019-01-23T23:37:33.810Z,61.13
2019-01-23T23:40:05.176Z,61.07
2019-01-23T23:42:35.813Z,55.23
2019-01-23T23:45:07.730Z,57.43
2019-01-23T23:47:38.356Z,55.63
2019-01-23T23:50:10.453Z,51.93
2019-01-23T23:52:41.049Z,56.23
2019-01-23T23:55:11.655Z,53.53
2019-01-23T23:57:42.298Z,59.40
